Main page
Satellite images 10-day forecastsClimateMarine weather Cyclones Lightning AirportsFAQ Newsletter About
Weather : Europe Africa North America South America Asia Australia-Oceania Others
Languages Contact

Bauru, São Paulo, Brazil

Bauru Airport

latitude: 22-19S, longitude: 049-04W, elevation: 590 m


METAR: SBBU 011100Z 21001KT CAVOK 24/14 Q1020
TAF: SBBU 010000Z 0106/0118 15006KT CAVOK TN21/0108Z TX32/0117Z RMK PDW

Time: 09:06 (12:06 UTC)

Current weather observation

The report was made 1 hour and 6 minutes ago, at 11:00 UTC
Wind 1 kt from the South/Southwest
Temperature 24°C
Humidity 54%
Pressure 1020 hPa
Visibility 10 km or more
no clouds below 1500 m and no cumulonimbus

Change units

Forecast

The report was made 12 hours and 6 minutes ago, at 00:00 UTC
Forecast valid from 01 at 06 UTC to 01 at 18 UTC
Wind 6 kt from the South/Southeast
Visibility 10 km or more
no clouds below 1500 m and no cumulonimbus
The information on this site is subject to a disclaimer
Weather : Europe Africa North America South America Asia Australia-Oceania Others
Satellite images 10-day forecastsClimateMarine weather Cyclones Lightning AirportsFAQ Languages Contact Newsletter About